sensor_id;sensor_type;location;lat;lon;timestamp;temperature;humidity
12438;DHT22;6283;51.330;12.374;2024-01-27T00:01:32;5.60;1.00
12438;DHT22;6283;51.330;12.374;2024-01-27T00:03:58;5.70;1.00
12438;DHT22;6283;51.330;12.374;2024-01-27T00:06:23;5.70;1.00
12438;DHT22;6283;51.330;12.374;2024-01-27T00:08:49;5.60;1.00
12438;DHT22;6283;51.330;12.374;2024-01-27T00:11:15;5.60;1.00
12438;DHT22;6283;51.330;12.374;2024-01-27T00:13:40;5.70;1.00
12438;DHT22;6283;51.330;12.374;2024-01-27T00:16:07;5.50;1.00
12438;DHT22;6283;51.330;12.374;2024-01-27T00:18:35;5.50;1.00
12438;DHT22;6283;51.330;12.374;2024-01-27T00:21:00;5.70;1.00
12438;DHT22;6283;51.330;12.374;2024-01-27T00:23:26;5.50;1.00
12438;DHT22;6283;51.330;12.374;2024-01-27T00:25:52;5.40;1.00
12438;DHT22;6283;51.330;12.374;2024-01-27T00:28:18;5.80;1.00
12438;DHT22;6283;51.330;12.374;2024-01-27T00:30:43;5.60;1.00
12438;DHT22;6283;51.330;12.374;2024-01-27T00:33:09;5.40;1.00
12438;DHT22;6283;51.330;12.374;2024-01-27T00:35:35;5.70;1.00
12438;DHT22;6283;51.330;12.374;2024-01-27T00:38:00;5.50;1.00
12438;DHT22;6283;51.330;12.374;2024-01-27T00:40:26;5.70;1.00
12438;DHT22;6283;51.330;12.374;2024-01-27T00:42:52;5.70;1.00
12438;DHT22;6283;51.330;12.374;2024-01-27T00:45:17;5.30;1.00
12438;DHT22;6283;51.330;12.374;2024-01-27T00:47:43;5.40;1.00
12438;DHT22;6283;51.330;12.374;2024-01-27T00:50:09;5.40;1.00
12438;DHT22;6283;51.330;12.374;2024-01-27T00:52:35;5.70;1.00
12438;DHT22;6283;51.330;12.374;2024-01-27T00:55:01;5.30;1.00
12438;DHT22;6283;51.330;12.374;2024-01-27T00:57:26;5.40;1.00
12438;DHT22;6283;51.330;12.374;2024-01-27T00:59:52;5.50;1.00
12438;DHT22;6283;51.330;12.374;2024-01-27T01:02:17;5.40;1.00
12438;DHT22;6283;51.330;12.374;2024-01-27T01:04:43;5.60;1.00
12438;DHT22;6283;51.330;12.374;2024-01-27T01:07:10;5.60;1.00
12438;DHT22;6283;51.330;12.374;2024-01-27T01:09:36;5.40;1.00
12438;DHT22;6283;51.330;12.374;2024-01-27T01:12:01;5.60;1.00
12438;DHT22;6283;51.330;12.374;2024-01-27T01:14:27;5.20;1.00
12438;DHT22;6283;51.330;12.374;2024-01-27T01:16:53;5.20;1.00
12438;DHT22;6283;51.330;12.374;2024-01-27T01:19:18;5.10;1.00
12438;DHT22;6283;51.330;12.374;2024-01-27T01:21:44;5.30;1.00
12438;DHT22;6283;51.330;12.374;2024-01-27T01:24:10;5.20;1.00
12438;DHT22;6283;51.330;12.374;2024-01-27T01:26:36;5.10;1.00
12438;DHT22;6283;51.330;12.374;2024-01-27T01:29:01;5.20;1.00
12438;DHT22;6283;51.330;12.374;2024-01-27T01:31:27;5.40;1.00
12438;DHT22;6283;51.330;12.374;2024-01-27T01:33:52;5.10;1.00
12438;DHT22;6283;51.330;12.374;2024-01-27T01:36:18;5.20;1.00
12438;DHT22;6283;51.330;12.374;2024-01-27T01:38:43;5.30;1.00
12438;DHT22;6283;51.330;12.374;2024-01-27T01:41:09;5.00;1.00
12438;DHT22;6283;51.330;12.374;2024-01-27T01:43:35;5.10;1.00
12438;DHT22;6283;51.330;12.374;2024-01-27T01:46:00;5.20;1.00
12438;DHT22;6283;51.330;12.374;2024-01-27T01:48:26;5.00;1.00
12438;DHT22;6283;51.330;12.374;2024-01-27T01:50:52;5.10;1.00
12438;DHT22;6283;51.330;12.374;2024-01-27T01:53:18;5.20;1.00
12438;DHT22;6283;51.330;12.374;2024-01-27T01:55:44;4.90;1.00
12438;DHT22;6283;51.330;12.374;2024-01-27T01:58:11;5.20;1.00
12438;DHT22;6283;51.330;12.374;2024-01-27T02:00:37;4.80;1.00
12438;DHT22;6283;51.330;12.374;2024-01-27T02:03:03;5.10;1.00
12438;DHT22;6283;51.330;12.374;2024-01-27T02:05:29;4.90;1.00
12438;DHT22;6283;51.330;12.374;2024-01-27T02:07:54;4.80;1.00
12438;DHT22;6283;51.330;12.374;2024-01-27T02:10:21;4.70;1.00
12438;DHT22;6283;51.330;12.374;2024-01-27T02:12:47;5.00;1.00
12438;DHT22;6283;51.330;12.374;2024-01-27T02:15:13;4.80;1.00
12438;DHT22;6283;51.330;12.374;2024-01-27T02:17:40;4.70;1.00
12438;DHT22;6283;51.330;12.374;2024-01-27T02:20:09;5.00;1.00
12438;DHT22;6283;51.330;12.374;2024-01-27T02:22:35;4.90;1.00
12438;DHT22;6283;51.330;12.374;2024-01-27T02:25:02;4.80;1.00
12438;DHT22;6283;51.330;12.374;2024-01-27T02:27:27;4.60;1.00
12438;DHT22;6283;51.330;12.374;2024-01-27T02:29:53;4.80;1.00
12438;DHT22;6283;51.330;12.374;2024-01-27T02:32:19;4.80;1.00
12438;DHT22;6283;51.330;12.374;2024-01-27T02:34:44;4.60;1.00
12438;DHT22;6283;51.330;12.374;2024-01-27T02:37:10;4.70;1.00
12438;DHT22;6283;51.330;12.374;2024-01-27T02:39:36;4.70;1.00
12438;DHT22;6283;51.330;12.374;2024-01-27T02:42:02;4.60;1.00
12438;DHT22;6283;51.330;12.374;2024-01-27T02:44:27;4.60;1.00
12438;DHT22;6283;51.330;12.374;2024-01-27T02:46:53;4.60;1.00
12438;DHT22;6283;51.330;12.374;2024-01-27T02:49:18;4.70;1.00
12438;DHT22;6283;51.330;12.374;2024-01-27T02:51:44;4.70;1.00
12438;DHT22;6283;51.330;12.374;2024-01-27T02:54:10;4.60;1.00
12438;DHT22;6283;51.330;12.374;2024-01-27T02:56:35;4.60;1.00
12438;DHT22;6283;51.330;12.374;2024-01-27T02:59:02;4.60;1.00
12438;DHT22;6283;51.330;12.374;2024-01-27T03:01:28;4.60;1.00
12438;DHT22;6283;51.330;12.374;2024-01-27T03:03:53;4.50;1.00
12438;DHT22;6283;51.330;12.374;2024-01-27T03:06:19;4.50;1.00
12438;DHT22;6283;51.330;12.374;2024-01-27T03:08:44;4.60;1.00
12438;DHT22;6283;51.330;12.374;2024-01-27T03:11:10;4.70;1.00
12438;DHT22;6283;51.330;12.374;2024-01-27T03:13:36;4.80;1.00
12438;DHT22;6283;51.330;12.374;2024-01-27T03:16:02;4.60;1.00
12438;DHT22;6283;51.330;12.374;2024-01-27T03:18:27;4.90;1.00
12438;DHT22;6283;51.330;12.374;2024-01-27T03:20:53;4.70;1.00
12438;DHT22;6283;51.330;12.374;2024-01-27T03:23:18;4.60;1.00
12438;DHT22;6283;51.330;12.374;2024-01-27T03:25:44;4.70;1.00
12438;DHT22;6283;51.330;12.374;2024-01-27T03:28:10;4.50;1.00
12438;DHT22;6283;51.330;12.374;2024-01-27T03:30:35;4.90;1.00
12438;DHT22;6283;51.330;12.374;2024-01-27T03:33:01;4.70;1.00
12438;DHT22;6283;51.330;12.374;2024-01-27T03:35:27;4.60;1.00
12438;DHT22;6283;51.330;12.374;2024-01-27T03:37:52;4.80;1.00
12438;DHT22;6283;51.330;12.374;2024-01-27T03:40:18;4.60;1.00
12438;DHT22;6283;51.330;12.374;2024-01-27T03:42:43;4.60;1.00
12438;DHT22;6283;51.330;12.374;2024-01-27T03:45:09;4.60;1.00
12438;DHT22;6283;51.330;12.374;2024-01-27T03:47:35;4.60;1.00
12438;DHT22;6283;51.330;12.374;2024-01-27T03:50:00;4.60;1.00
12438;DHT22;6283;51.330;12.374;2024-01-27T03:52:26;4.40;1.00
12438;DHT22;6283;51.330;12.374;2024-01-27T03:54:52;4.30;1.00
12438;DHT22;6283;51.330;12.374;2024-01-27T03:57:17;4.70;1.00
12438;DHT22;6283;51.330;12.374;2024-01-27T03:59:43;4.50;1.00
12438;DHT22;6283;51.330;12.374;2024-01-27T04:02:08;4.40;1.00
12438;DHT22;6283;51.330;12.374;2024-01-27T04:04:34;4.60;1.00
12438;DHT22;6283;51.330;12.374;2024-01-27T04:07:00;4.40;1.00
12438;DHT22;6283;51.330;12.374;2024-01-27T04:09:27;4.40;1.00
12438;DHT22;6283;51.330;12.374;2024-01-27T04:11:53;4.40;1.00
12438;DHT22;6283;51.330;12.374;2024-01-27T04:14:18;4.40;1.00
12438;DHT22;6283;51.330;12.374;2024-01-27T04:16:44;4.30;1.00
12438;DHT22;6283;51.330;12.374;2024-01-27T04:19:10;4.40;1.00
12438;DHT22;6283;51.330;12.374;2024-01-27T04:21:35;4.40;1.00
12438;DHT22;6283;51.330;12.374;2024-01-27T04:24:01;4.30;1.00
12438;DHT22;6283;51.330;12.374;2024-01-27T04:26:27;4.40;1.00
12438;DHT22;6283;51.330;12.374;2024-01-27T04:28:52;4.40;1.00
12438;DHT22;6283;51.330;12.374;2024-01-27T04:31:18;4.40;1.00
12438;DHT22;6283;51.330;12.374;2024-01-27T04:33:44;4.60;1.00
12438;DHT22;6283;51.330;12.374;2024-01-27T04:36:10;4.60;1.00
12438;DHT22;6283;51.330;12.374;2024-01-27T04:38:35;4.50;1.00
12438;DHT22;6283;51.330;12.374;2024-01-27T04:41:01;4.30;1.00
12438;DHT22;6283;51.330;12.374;2024-01-27T04:43:28;4.50;1.00
12438;DHT22;6283;51.330;12.374;2024-01-27T04:45:54;4.50;1.00
12438;DHT22;6283;51.330;12.374;2024-01-27T04:48:19;4.50;1.00
12438;DHT22;6283;51.330;12.374;2024-01-27T04:50:45;4.80;1.00
12438;DHT22;6283;51.330;12.374;2024-01-27T04:53:12;4.50;1.00
12438;DHT22;6283;51.330;12.374;2024-01-27T04:55:37;4.50;1.00
12438;DHT22;6283;51.330;12.374;2024-01-27T04:58:04;4.70;1.00
12438;DHT22;6283;51.330;12.374;2024-01-27T05:00:29;4.60;1.00
12438;DHT22;6283;51.330;12.374;2024-01-27T05:02:56;4.60;1.00
12438;DHT22;6283;51.330;12.374;2024-01-27T05:05:23;4.60;1.00
12438;DHT22;6283;51.330;12.374;2024-01-27T05:07:48;4.60;1.00
12438;DHT22;6283;51.330;12.374;2024-01-27T05:10:17;4.70;1.00
12438;DHT22;6283;51.330;12.374;2024-01-27T05:12:43;4.70;1.00
12438;DHT22;6283;51.330;12.374;2024-01-27T05:15:10;4.50;1.00
12438;DHT22;6283;51.330;12.374;2024-01-27T05:17:36;4.60;1.00
12438;DHT22;6283;51.330;12.374;2024-01-27T05:20:02;4.60;1.00
12438;DHT22;6283;51.330;12.374;2024-01-27T05:22:29;4.50;1.00
12438;DHT22;6283;51.330;12.374;2024-01-27T05:24:55;4.60;1.00
12438;DHT22;6283;51.330;12.374;2024-01-27T05:27:21;4.40;1.00
12438;DHT22;6283;51.330;12.374;2024-01-27T05:29:46;4.50;1.00
12438;DHT22;6283;51.330;12.374;2024-01-27T05:32:12;4.50;1.00
12438;DHT22;6283;51.330;12.374;2024-01-27T05:34:37;4.40;1.00
12438;DHT22;6283;51.330;12.374;2024-01-27T05:37:03;4.70;1.00
12438;DHT22;6283;51.330;12.374;2024-01-27T05:39:29;4.50;1.00
12438;DHT22;6283;51.330;12.374;2024-01-27T05:41:55;4.50;1.00
12438;DHT22;6283;51.330;12.374;2024-01-27T05:44:20;4.60;1.00
12438;DHT22;6283;51.330;12.374;2024-01-27T05:46:46;4.70;1.00
12438;DHT22;6283;51.330;12.374;2024-01-27T05:49:12;4.80;1.00
12438;DHT22;6283;51.330;12.374;2024-01-27T05:51:38;4.60;1.00
12438;DHT22;6283;51.330;12.374;2024-01-27T05:54:03;4.80;1.00
12438;DHT22;6283;51.330;12.374;2024-01-27T05:56:29;4.60;1.00
12438;DHT22;6283;51.330;12.374;2024-01-27T05:58:55;4.80;1.00
12438;DHT22;6283;51.330;12.374;2024-01-27T06:01:21;4.80;1.00
12438;DHT22;6283;51.330;12.374;2024-01-27T06:03:46;4.80;1.00
12438;DHT22;6283;51.330;12.374;2024-01-27T06:06:12;4.80;1.00
12438;DHT22;6283;51.330;12.374;2024-01-27T06:08:38;4.80;1.00
12438;DHT22;6283;51.330;12.374;2024-01-27T06:11:04;4.80;1.00
12438;DHT22;6283;51.330;12.374;2024-01-27T06:13:30;4.80;1.00
12438;DHT22;6283;51.330;12.374;2024-01-27T06:15:55;4.80;1.00
12438;DHT22;6283;51.330;12.374;2024-01-27T06:18:21;4.80;1.00
12438;DHT22;6283;51.330;12.374;2024-01-27T06:20:47;4.80;1.00
12438;DHT22;6283;51.330;12.374;2024-01-27T06:23:12;4.90;1.00
12438;DHT22;6283;51.330;12.374;2024-01-27T06:25:38;4.90;1.00
12438;DHT22;6283;51.330;12.374;2024-01-27T06:28:04;4.80;1.00
12438;DHT22;6283;51.330;12.374;2024-01-27T06:30:29;4.80;1.00
12438;DHT22;6283;51.330;12.374;2024-01-27T06:32:55;4.60;1.00
12438;DHT22;6283;51.330;12.374;2024-01-27T06:35:21;4.80;1.00
12438;DHT22;6283;51.330;12.374;2024-01-27T06:37:46;4.80;1.00
12438;DHT22;6283;51.330;12.374;2024-01-27T06:40:12;4.60;1.00
12438;DHT22;6283;51.330;12.374;2024-01-27T06:42:38;4.60;1.00
12438;DHT22;6283;51.330;12.374;2024-01-27T06:45:04;4.60;1.00
12438;DHT22;6283;51.330;12.374;2024-01-27T06:47:30;4.60;1.00
12438;DHT22;6283;51.330;12.374;2024-01-27T06:49:56;4.60;1.00
12438;DHT22;6283;51.330;12.374;2024-01-27T06:52:22;4.40;1.00
12438;DHT22;6283;51.330;12.374;2024-01-27T06:54:47;4.40;1.00
12438;DHT22;6283;51.330;12.374;2024-01-27T06:57:19;4.40;1.00
12438;DHT22;6283;51.330;12.374;2024-01-27T06:59:47;4.40;1.00
12438;DHT22;6283;51.330;12.374;2024-01-27T07:02:23;4.20;1.00
12438;DHT22;6283;51.330;12.374;2024-01-27T07:04:50;4.30;1.00
12438;DHT22;6283;51.330;12.374;2024-01-27T07:07:16;4.30;1.00
12438;DHT22;6283;51.330;12.374;2024-01-27T07:09:41;4.30;1.00
12438;DHT22;6283;51.330;12.374;2024-01-27T07:12:07;4.40;1.00
12438;DHT22;6283;51.330;12.374;2024-01-27T07:14:34;4.30;1.00
12438;DHT22;6283;51.330;12.374;2024-01-27T07:17:00;4.40;1.00
12438;DHT22;6283;51.330;12.374;2024-01-27T07:19:26;4.30;1.00
12438;DHT22;6283;51.330;12.374;2024-01-27T07:21:52;4.40;1.00
12438;DHT22;6283;51.330;12.374;2024-01-27T07:24:17;4.40;1.00
12438;DHT22;6283;51.330;12.374;2024-01-27T07:26:43;4.40;1.00
12438;DHT22;6283;51.330;12.374;2024-01-27T07:29:09;4.40;1.00
12438;DHT22;6283;51.330;12.374;2024-01-27T07:31:34;4.60;1.00
12438;DHT22;6283;51.330;12.374;2024-01-27T07:34:00;4.50;1.00
12438;DHT22;6283;51.330;12.374;2024-01-27T07:36:25;4.30;1.00
12438;DHT22;6283;51.330;12.374;2024-01-27T07:38:56;4.30;1.00
12438;DHT22;6283;51.330;12.374;2024-01-27T07:41:22;4.60;1.00
12438;DHT22;6283;51.330;12.374;2024-01-27T07:43:47;4.70;1.00
12438;DHT22;6283;51.330;12.374;2024-01-27T07:46:13;4.50;1.00
12438;DHT22;6283;51.330;12.374;2024-01-27T07:48:39;4.60;1.00
12438;DHT22;6283;51.330;12.374;2024-01-27T07:51:04;4.40;1.00
12438;DHT22;6283;51.330;12.374;2024-01-27T07:53:30;4.60;1.00
12438;DHT22;6283;51.330;12.374;2024-01-27T07:55:55;4.70;1.00
12438;DHT22;6283;51.330;12.374;2024-01-27T07:58:21;4.70;1.00
12438;DHT22;6283;51.330;12.374;2024-01-27T08:00:47;4.90;1.00
12438;DHT22;6283;51.330;12.374;2024-01-27T08:03:12;4.60;1.00
12438;DHT22;6283;51.330;12.374;2024-01-27T08:05:38;4.70;1.00
12438;DHT22;6283;51.330;12.374;2024-01-27T08:08:04;4.50;1.00
12438;DHT22;6283;51.330;12.374;2024-01-27T08:10:30;4.50;1.00
12438;DHT22;6283;51.330;12.374;2024-01-27T08:12:55;4.70;1.00
12438;DHT22;6283;51.330;12.374;2024-01-27T08:15:21;4.50;1.00
12438;DHT22;6283;51.330;12.374;2024-01-27T08:17:47;4.50;1.00
12438;DHT22;6283;51.330;12.374;2024-01-27T08:20:12;4.60;1.00
12438;DHT22;6283;51.330;12.374;2024-01-27T08:22:38;4.60;1.00
12438;DHT22;6283;51.330;12.374;2024-01-27T08:25:04;4.60;1.00
12438;DHT22;6283;51.330;12.374;2024-01-27T08:27:30;4.60;1.00
12438;DHT22;6283;51.330;12.374;2024-01-27T08:29:55;4.50;1.00
12438;DHT22;6283;51.330;12.374;2024-01-27T08:32:21;4.30;1.00
12438;DHT22;6283;51.330;12.374;2024-01-27T08:34:46;4.40;1.00
12438;DHT22;6283;51.330;12.374;2024-01-27T08:37:19;4.30;1.00
12438;DHT22;6283;51.330;12.374;2024-01-27T08:39:45;4.40;1.00
12438;DHT22;6283;51.330;12.374;2024-01-27T08:42:11;4.30;1.00
12438;DHT22;6283;51.330;12.374;2024-01-27T08:44:37;4.30;1.00
12438;DHT22;6283;51.330;12.374;2024-01-27T08:47:04;4.40;1.00
12438;DHT22;6283;51.330;12.374;2024-01-27T08:49:30;4.40;1.00
12438;DHT22;6283;51.330;12.374;2024-01-27T08:51:55;4.60;1.00
12438;DHT22;6283;51.330;12.374;2024-01-27T08:54:21;4.60;1.00
12438;DHT22;6283;51.330;12.374;2024-01-27T08:56:47;4.70;1.00
12438;DHT22;6283;51.330;12.374;2024-01-27T08:59:13;4.80;1.00
12438;DHT22;6283;51.330;12.374;2024-01-27T09:01:38;4.80;1.00
12438;DHT22;6283;51.330;12.374;2024-01-27T09:04:04;4.80;1.00
12438;DHT22;6283;51.330;12.374;2024-01-27T09:06:30;5.20;1.00
12438;DHT22;6283;51.330;12.374;2024-01-27T09:08:55;5.10;1.00
12438;DHT22;6283;51.330;12.374;2024-01-27T09:11:21;5.30;1.00
12438;DHT22;6283;51.330;12.374;2024-01-27T09:13:52;5.20;1.00
12438;DHT22;6283;51.330;12.374;2024-01-27T09:16:18;5.20;1.00
12438;DHT22;6283;51.330;12.374;2024-01-27T09:18:44;5.20;1.00
12438;DHT22;6283;51.330;12.374;2024-01-27T09:21:12;5.60;1.00
12438;DHT22;6283;51.330;12.374;2024-01-27T09:23:38;5.50;1.00
12438;DHT22;6283;51.330;12.374;2024-01-27T09:26:03;5.70;1.00
12438;DHT22;6283;51.330;12.374;2024-01-27T09:28:30;5.50;1.00
12438;DHT22;6283;51.330;12.374;2024-01-27T09:30:56;5.60;1.00
12438;DHT22;6283;51.330;12.374;2024-01-27T09:33:22;5.70;1.00
12438;DHT22;6283;51.330;12.374;2024-01-27T09:35:49;5.80;1.00
12438;DHT22;6283;51.330;12.374;2024-01-27T09:38:15;5.90;1.00
12438;DHT22;6283;51.330;12.374;2024-01-27T09:40:41;5.70;1.00
12438;DHT22;6283;51.330;12.374;2024-01-27T09:43:10;6.00;1.00
12438;DHT22;6283;51.330;12.374;2024-01-27T09:45:39;6.00;1.00
12438;DHT22;6283;51.330;12.374;2024-01-27T09:48:06;6.10;1.00
12438;DHT22;6283;51.330;12.374;2024-01-27T09:50:34;6.10;1.00
12438;DHT22;6283;51.330;12.374;2024-01-27T09:52:59;6.00;1.00
12438;DHT22;6283;51.330;12.374;2024-01-27T09:55:26;6.00;1.00
12438;DHT22;6283;51.330;12.374;2024-01-27T09:57:52;6.10;1.00
12438;DHT22;6283;51.330;12.374;2024-01-27T10:00:19;6.10;1.00
12438;DHT22;6283;51.330;12.374;2024-01-27T10:02:46;6.00;1.00
12438;DHT22;6283;51.330;12.374;2024-01-27T10:05:14;6.30;1.00
12438;DHT22;6283;51.330;12.374;2024-01-27T10:07:41;6.10;1.00
12438;DHT22;6283;51.330;12.374;2024-01-27T10:10:07;6.30;1.00
12438;DHT22;6283;51.330;12.374;2024-01-27T10:12:37;6.20;1.00
12438;DHT22;6283;51.330;12.374;2024-01-27T10:15:04;6.40;1.00
12438;DHT22;6283;51.330;12.374;2024-01-27T10:17:30;6.20;1.00
12438;DHT22;6283;51.330;12.374;2024-01-27T10:20:04;6.10;1.00
12438;DHT22;6283;51.330;12.374;2024-01-27T10:22:38;6.20;1.00
12438;DHT22;6283;51.330;12.374;2024-01-27T10:25:05;6.40;1.00
12438;DHT22;6283;51.330;12.374;2024-01-27T10:27:31;6.40;1.00
12438;DHT22;6283;51.330;12.374;2024-01-27T10:29:57;6.40;1.00
12438;DHT22;6283;51.330;12.374;2024-01-27T10:32:22;6.40;1.00
12438;DHT22;6283;51.330;12.374;2024-01-27T10:35:07;6.40;1.00
12438;DHT22;6283;51.330;12.374;2024-01-27T10:37:36;6.40;1.00
12438;DHT22;6283;51.330;12.374;2024-01-27T10:40:06;6.40;1.00
12438;DHT22;6283;51.330;12.374;2024-01-27T10:42:36;6.50;1.00
12438;DHT22;6283;51.330;12.374;2024-01-27T10:45:03;6.70;1.00
12438;DHT22;6283;51.330;12.374;2024-01-27T10:47:30;6.50;1.00
12438;DHT22;6283;51.330;12.374;2024-01-27T10:49:57;6.60;1.00
12438;DHT22;6283;51.330;12.374;2024-01-27T10:52:25;6.70;1.00
12438;DHT22;6283;51.330;12.374;2024-01-27T10:54:57;6.90;1.00
12438;DHT22;6283;51.330;12.374;2024-01-27T10:57:25;6.60;1.00
12438;DHT22;6283;51.330;12.374;2024-01-27T10:59:55;6.70;1.00
12438;DHT22;6283;51.330;12.374;2024-01-27T11:02:22;6.90;1.00
12438;DHT22;6283;51.330;12.374;2024-01-27T11:04:51;7.00;1.00
12438;DHT22;6283;51.330;12.374;2024-01-27T11:07:20;6.70;1.00
12438;DHT22;6283;51.330;12.374;2024-01-27T11:09:49;6.70;1.00
12438;DHT22;6283;51.330;12.374;2024-01-27T11:12:19;7.00;1.00
12438;DHT22;6283;51.330;12.374;2024-01-27T11:14:47;6.80;1.00
12438;DHT22;6283;51.330;12.374;2024-01-27T11:17:14;6.80;1.00
12438;DHT22;6283;51.330;12.374;2024-01-27T11:19:40;6.80;1.00
12438;DHT22;6283;51.330;12.374;2024-01-27T11:22:06;6.90;1.00
12438;DHT22;6283;51.330;12.374;2024-01-27T11:24:32;7.30;1.00
12438;DHT22;6283;51.330;12.374;2024-01-27T11:27:05;7.10;1.00
12438;DHT22;6283;51.330;12.374;2024-01-27T11:29:32;7.20;1.00
12438;DHT22;6283;51.330;12.374;2024-01-27T11:32:01;7.20;1.00
12438;DHT22;6283;51.330;12.374;2024-01-27T11:34:28;7.20;1.00
12438;DHT22;6283;51.330;12.374;2024-01-27T11:36:53;7.40;1.00
12438;DHT22;6283;51.330;12.374;2024-01-27T11:39:27;7.50;1.00
12438;DHT22;6283;51.330;12.374;2024-01-27T11:41:52;7.60;1.00
12438;DHT22;6283;51.330;12.374;2024-01-27T11:44:19;7.50;1.00
12438;DHT22;6283;51.330;12.374;2024-01-27T11:46:46;7.60;1.00
12438;DHT22;6283;51.330;12.374;2024-01-27T11:49:15;7.70;1.00
12438;DHT22;6283;51.330;12.374;2024-01-27T11:51:42;7.50;1.00
12438;DHT22;6283;51.330;12.374;2024-01-27T11:54:08;7.60;1.00
12438;DHT22;6283;51.330;12.374;2024-01-27T11:56:34;7.60;1.00
12438;DHT22;6283;51.330;12.374;2024-01-27T11:58:59;7.80;1.00
12438;DHT22;6283;51.330;12.374;2024-01-27T12:01:25;7.90;1.00
12438;DHT22;6283;51.330;12.374;2024-01-27T12:03:51;7.90;1.00
12438;DHT22;6283;51.330;12.374;2024-01-27T12:06:17;8.40;1.00
12438;DHT22;6283;51.330;12.374;2024-01-27T12:08:43;8.20;1.00
12438;DHT22;6283;51.330;12.374;2024-01-27T12:11:13;8.40;1.00
12438;DHT22;6283;51.330;12.374;2024-01-27T12:13:39;8.30;1.00
12438;DHT22;6283;51.330;12.374;2024-01-27T12:16:05;8.50;1.00
12438;DHT22;6283;51.330;12.374;2024-01-27T12:18:31;8.50;1.00
12438;DHT22;6283;51.330;12.374;2024-01-27T12:20:57;9.00;1.00
12438;DHT22;6283;51.330;12.374;2024-01-27T12:23:23;8.90;1.00
12438;DHT22;6283;51.330;12.374;2024-01-27T12:25:55;9.40;1.00
12438;DHT22;6283;51.330;12.374;2024-01-27T12:28:23;9.50;1.00
12438;DHT22;6283;51.330;12.374;2024-01-27T12:30:52;9.50;1.00
12438;DHT22;6283;51.330;12.374;2024-01-27T12:33:18;9.60;1.00
12438;DHT22;6283;51.330;12.374;2024-01-27T12:35:48;9.60;1.00
12438;DHT22;6283;51.330;12.374;2024-01-27T12:38:14;9.80;1.00
12438;DHT22;6283;51.330;12.374;2024-01-27T12:40:40;9.90;1.00
12438;DHT22;6283;51.330;12.374;2024-01-27T12:43:06;9.80;1.00
12438;DHT22;6283;51.330;12.374;2024-01-27T12:45:31;9.90;99.90
12438;DHT22;6283;51.330;12.374;2024-01-27T12:48:00;10.40;99.90
12438;DHT22;6283;51.330;12.374;2024-01-27T12:50:26;10.20;99.90
12438;DHT22;6283;51.330;12.374;2024-01-27T12:52:51;10.50;99.90
12438;DHT22;6283;51.330;12.374;2024-01-27T12:55:17;10.10;99.90
12438;DHT22;6283;51.330;12.374;2024-01-27T12:57:43;10.30;99.90
12438;DHT22;6283;51.330;12.374;2024-01-27T13:00:09;10.10;99.90
12438;DHT22;6283;51.330;12.374;2024-01-27T13:02:39;10.20;99.90
12438;DHT22;6283;51.330;12.374;2024-01-27T13:05:05;10.20;99.90
12438;DHT22;6283;51.330;12.374;2024-01-27T13:07:31;10.20;99.90
12438;DHT22;6283;51.330;12.374;2024-01-27T13:09:56;10.30;99.90
12438;DHT22;6283;51.330;12.374;2024-01-27T13:12:22;10.60;99.90
12438;DHT22;6283;51.330;12.374;2024-01-27T13:14:48;10.70;99.90
12438;DHT22;6283;51.330;12.374;2024-01-27T13:17:14;10.50;99.90
12438;DHT22;6283;51.330;12.374;2024-01-27T13:19:40;10.40;99.90
12438;DHT22;6283;51.330;12.374;2024-01-27T13:22:06;10.40;99.90
12438;DHT22;6283;51.330;12.374;2024-01-27T13:24:33;10.80;99.90
12438;DHT22;6283;51.330;12.374;2024-01-27T13:26:59;10.90;99.90
12438;DHT22;6283;51.330;12.374;2024-01-27T13:29:25;10.90;99.90
12438;DHT22;6283;51.330;12.374;2024-01-27T13:31:52;11.10;99.90
12438;DHT22;6283;51.330;12.374;2024-01-27T13:34:18;11.30;99.90
12438;DHT22;6283;51.330;12.374;2024-01-27T13:36:44;11.20;99.90
12438;DHT22;6283;51.330;12.374;2024-01-27T13:39:09;11.40;99.90
12438;DHT22;6283;51.330;12.374;2024-01-27T13:41:35;11.40;99.90
12438;DHT22;6283;51.330;12.374;2024-01-27T13:44:01;11.40;99.90
12438;DHT22;6283;51.330;12.374;2024-01-27T13:46:27;11.50;99.90
12438;DHT22;6283;51.330;12.374;2024-01-27T13:48:53;11.50;99.90
12438;DHT22;6283;51.330;12.374;2024-01-27T13:51:18;11.40;99.90
12438;DHT22;6283;51.330;12.374;2024-01-27T13:53:44;11.30;99.90
12438;DHT22;6283;51.330;12.374;2024-01-27T13:56:10;11.20;99.90
12438;DHT22;6283;51.330;12.374;2024-01-27T13:58:35;11.10;99.90
12438;DHT22;6283;51.330;12.374;2024-01-27T14:01:01;11.00;99.90
12438;DHT22;6283;51.330;12.374;2024-01-27T14:03:27;10.80;99.90
12438;DHT22;6283;51.330;12.374;2024-01-27T14:05:52;11.10;99.90
12438;DHT22;6283;51.330;12.374;2024-01-27T14:08:18;11.00;99.90
12438;DHT22;6283;51.330;12.374;2024-01-27T14:10:44;10.60;99.90
12438;DHT22;6283;51.330;12.374;2024-01-27T14:13:10;10.70;99.90
12438;DHT22;6283;51.330;12.374;2024-01-27T14:15:36;10.60;99.90
12438;DHT22;6283;51.330;12.374;2024-01-27T14:18:02;10.60;99.90
12438;DHT22;6283;51.330;12.374;2024-01-27T14:20:31;10.50;99.90
12438;DHT22;6283;51.330;12.374;2024-01-27T14:22:59;10.50;99.90
12438;DHT22;6283;51.330;12.374;2024-01-27T14:25:25;10.60;99.90
12438;DHT22;6283;51.330;12.374;2024-01-27T14:27:50;10.70;99.90
12438;DHT22;6283;51.330;12.374;2024-01-27T14:30:16;10.80;99.90
12438;DHT22;6283;51.330;12.374;2024-01-27T14:32:41;11.10;99.90
12438;DHT22;6283;51.330;12.374;2024-01-27T14:35:07;10.70;99.90
12438;DHT22;6283;51.330;12.374;2024-01-27T14:37:33;10.80;99.90
12438;DHT22;6283;51.330;12.374;2024-01-27T14:39:59;10.90;99.90
12438;DHT22;6283;51.330;12.374;2024-01-27T14:42:24;10.60;99.90
12438;DHT22;6283;51.330;12.374;2024-01-27T14:44:51;10.50;99.90
12438;DHT22;6283;51.330;12.374;2024-01-27T14:47:18;10.50;99.90
12438;DHT22;6283;51.330;12.374;2024-01-27T14:49:45;10.40;99.90
12438;DHT22;6283;51.330;12.374;2024-01-27T14:52:11;10.60;99.90
12438;DHT22;6283;51.330;12.374;2024-01-27T14:54:38;10.70;99.90
12438;DHT22;6283;51.330;12.374;2024-01-27T14:57:04;10.60;99.90
12438;DHT22;6283;51.330;12.374;2024-01-27T14:59:31;10.50;99.90
12438;DHT22;6283;51.330;12.374;2024-01-27T15:01:57;10.80;99.90
12438;DHT22;6283;51.330;12.374;2024-01-27T15:04:25;10.30;99.90
12438;DHT22;6283;51.330;12.374;2024-01-27T15:06:55;10.40;99.90
12438;DHT22;6283;51.330;12.374;2024-01-27T15:09:22;10.50;99.90
12438;DHT22;6283;51.330;12.374;2024-01-27T15:11:49;10.40;99.90
12438;DHT22;6283;51.330;12.374;2024-01-27T15:14:14;10.40;99.90
12438;DHT22;6283;51.330;12.374;2024-01-27T15:16:40;10.40;99.90
12438;DHT22;6283;51.330;12.374;2024-01-27T15:19:06;10.20;99.90
12438;DHT22;6283;51.330;12.374;2024-01-27T15:21:32;9.90;99.90
12438;DHT22;6283;51.330;12.374;2024-01-27T15:23:58;9.80;99.90
12438;DHT22;6283;51.330;12.374;2024-01-27T15:26:23;9.60;99.90
12438;DHT22;6283;51.330;12.374;2024-01-27T15:28:49;9.70;99.90
12438;DHT22;6283;51.330;12.374;2024-01-27T15:31:16;9.50;99.90
12438;DHT22;6283;51.330;12.374;2024-01-27T15:33:41;9.30;99.90
12438;DHT22;6283;51.330;12.374;2024-01-27T15:36:08;9.20;99.90
12438;DHT22;6283;51.330;12.374;2024-01-27T15:38:34;9.00;99.90
12438;DHT22;6283;51.330;12.374;2024-01-27T15:41:00;8.80;99.90
12438;DHT22;6283;51.330;12.374;2024-01-27T15:43:28;8.60;99.90
12438;DHT22;6283;51.330;12.374;2024-01-27T15:45:53;8.60;99.90
12438;DHT22;6283;51.330;12.374;2024-01-27T15:48:19;8.30;99.90
12438;DHT22;6283;51.330;12.374;2024-01-27T15:50:45;8.40;99.90